createdAt,value
2018-02-19T00:01:35.598Z,78.60
2018-02-19T00:04:01.718Z,78.80
2018-02-19T00:06:27.818Z,78.60
2018-02-19T00:08:53.864Z,78.90
2018-02-19T00:11:19.958Z,78.50
2018-02-19T00:13:47.541Z,78.10
2018-02-19T00:16:13.625Z,78.20
2018-02-19T00:18:40.436Z,79.00
2018-02-19T00:21:06.504Z,79.00
2018-02-19T00:23:32.657Z,79.30
2018-02-19T00:25:58.674Z,79.10
2018-02-19T00:28:24.701Z,79.10
2018-02-19T00:30:50.733Z,79.30
2018-02-19T00:33:17.545Z,79.60
2018-02-19T00:35:43.569Z,79.60
2018-02-19T00:38:09.587Z,79.20
2018-02-19T00:40:36.360Z,79.20
2018-02-19T00:43:02.369Z,79.20
2018-02-19T00:45:28.374Z,79.40
2018-02-19T00:47:55.123Z,80.80
2018-02-19T00:50:21.162Z,80.80
2018-02-19T00:52:47.193Z,81.30
2018-02-19T00:55:14.043Z,81.80
2018-02-19T00:57:40.064Z,81.70
2018-02-19T01:00:06.805Z,81.20
2018-02-19T01:02:32.891Z,81.10
2018-02-19T01:04:59.616Z,80.70
2018-02-19T01:07:25.631Z,80.60
2018-02-19T01:09:51.646Z,79.60
2018-02-19T01:12:17.676Z,79.10
2018-02-19T01:14:43.693Z,78.20
2018-02-19T01:17:10.464Z,77.80
2018-02-19T01:19:36.464Z,77.70
2018-02-19T01:22:03.298Z,77.80
2018-02-19T01:24:30.124Z,78.10
2018-02-19T01:26:56.197Z,78.00
2018-02-19T01:29:22.939Z,77.40
2018-02-19T01:31:48.974Z,77.30
2018-02-19T01:34:15.064Z,76.90
2018-02-19T01:36:41.853Z,76.70
2018-02-19T01:39:07.886Z,76.60
2018-02-19T01:41:33.998Z,77.00
2018-02-19T01:44:00.092Z,77.40
2018-02-19T01:46:26.855Z,77.80
2018-02-19T01:48:52.954Z,77.80
2018-02-19T01:51:18.923Z,77.80
2018-02-19T01:53:45.221Z,78.00
2018-02-19T01:56:11.376Z,78.50
2018-02-19T01:58:37.381Z,78.20
2018-02-19T02:01:03.389Z,78.20
2018-02-19T02:03:29.417Z,78.20
2018-02-19T02:05:55.523Z,77.60
2018-02-19T02:08:21.666Z,77.60
2018-02-19T02:10:48.382Z,77.60
2018-02-19T02:13:15.166Z,78.30
2018-02-19T02:15:41.511Z,78.20
2018-02-19T02:18:07.571Z,78.60
2018-02-19T02:20:34.637Z,78.60
2018-02-19T02:23:00.688Z,78.50
2018-02-19T02:25:26.697Z,78.60
2018-02-19T02:27:52.794Z,78.60
2018-02-19T02:30:18.857Z,78.40
2018-02-19T02:32:44.856Z,78.30
2018-02-19T02:35:10.847Z,78.10
2018-02-19T02:37:36.798Z,77.80
2018-02-19T02:40:02.811Z,77.90
2018-02-19T02:42:28.796Z,78.20
2018-02-19T02:44:54.800Z,78.30
2018-02-19T02:47:20.819Z,78.30
2018-02-19T02:49:46.826Z,77.90
2018-02-19T02:52:12.911Z,78.30
2018-02-19T02:54:39.679Z,79.10
2018-02-19T02:57:05.671Z,78.90
2018-02-19T02:59:31.695Z,79.30
2018-02-19T03:01:57.788Z,80.40
2018-02-19T03:04:23.838Z,79.40
2018-02-19T03:06:49.830Z,79.50
2018-02-19T03:09:15.843Z,79.00
2018-02-19T03:11:41.855Z,79.30
2018-02-19T03:14:07.905Z,79.10
2018-02-19T03:16:33.922Z,79.60
2018-02-19T03:18:59.919Z,79.60
2018-02-19T03:21:25.945Z,79.70
2018-02-19T03:23:51.965Z,79.40
2018-02-19T03:26:17.955Z,79.30
2018-02-19T03:28:44.744Z,79.50
2018-02-19T03:31:10.764Z,79.50
2018-02-19T03:33:37.529Z,79.20
2018-02-19T03:36:03.566Z,79.10
2018-02-19T03:38:29.589Z,79.20
2018-02-19T03:40:55.619Z,79.30
2018-02-19T03:43:21.636Z,79.60
2018-02-19T03:45:47.658Z,79.60
2018-02-19T03:48:13.818Z,79.60
2018-02-19T03:50:39.910Z,79.60
2018-02-19T03:53:05.985Z,79.60
2018-02-19T03:55:32.164Z,79.50
2018-02-19T03:57:58.183Z,79.80
2018-02-19T04:00:24.251Z,79.20
2018-02-19T04:02:50.270Z,79.00
2018-02-19T04:05:16.278Z,78.80
2018-02-19T04:07:43.023Z,79.30
2018-02-19T04:10:09.037Z,79.20
2018-02-19T04:12:35.783Z,78.40
2018-02-19T04:15:01.777Z,78.40
2018-02-19T04:17:28.169Z,78.60
2018-02-19T04:19:54.919Z,79.20
2018-02-19T04:22:20.888Z,79.10
2018-02-19T04:24:47.670Z,79.20
2018-02-19T04:27:14.430Z,79.10
2018-02-19T04:29:40.439Z,79.10
2018-02-19T04:32:06.429Z,79.50
2018-02-19T04:34:32.434Z,79.50
2018-02-19T04:36:59.232Z,79.90
2018-02-19T04:39:25.253Z,79.90
2018-02-19T04:41:51.311Z,79.90
2018-02-19T04:44:18.115Z,80.00
2018-02-19T04:46:44.150Z,79.90
2018-02-19T04:49:10.203Z,80.80
2018-02-19T04:51:36.969Z,80.60
2018-02-19T04:54:03.071Z,80.50
2018-02-19T04:56:29.828Z,81.90
2018-02-19T04:58:55.854Z,81.80
2018-02-19T05:01:21.858Z,82.10
2018-02-19T05:03:47.878Z,82.20
2018-02-19T05:06:14.619Z,82.80
2018-02-19T05:08:41.422Z,83.00
2018-02-19T05:11:07.434Z,83.00
2018-02-19T05:13:33.418Z,83.30
2018-02-19T05:15:59.432Z,84.00
2018-02-19T05:18:25.468Z,84.30
2018-02-19T05:20:51.478Z,84.80
2018-02-19T05:23:18.277Z,84.00
2018-02-19T05:25:44.296Z,83.90
2018-02-19T05:28:10.330Z,84.10
2018-02-19T05:30:36.409Z,84.60
2018-02-19T05:33:02.514Z,84.50
2018-02-19T05:35:29.320Z,84.40
2018-02-19T05:37:55.332Z,84.30
2018-02-19T05:40:21.394Z,84.70
2018-02-19T05:42:48.202Z,84.70
2018-02-19T05:45:14.357Z,84.60
2018-02-19T05:47:40.456Z,85.50
2018-02-19T05:50:06.474Z,85.70
2018-02-19T05:52:32.518Z,85.90
2018-02-19T05:54:58.585Z,85.20
2018-02-19T05:57:24.643Z,85.30
2018-02-19T05:59:50.726Z,85.30
2018-02-19T06:02:16.744Z,85.30
2018-02-19T06:04:42.738Z,85.10
2018-02-19T06:07:08.870Z,84.90
2018-02-19T06:09:34.894Z,85.00
2018-02-19T06:12:00.983Z,85.10
2018-02-19T06:14:27.053Z,84.80
2018-02-19T06:16:54.047Z,84.80
2018-02-19T06:19:20.148Z,84.70
2018-02-19T06:21:46.207Z,84.70
2018-02-19T06:24:12.239Z,84.80
2018-02-19T06:26:38.255Z,84.70
2018-02-19T06:29:04.295Z,84.80
2018-02-19T06:31:30.334Z,84.70
2018-02-19T06:33:56.393Z,84.80
2018-02-19T06:36:22.564Z,84.60
2018-02-19T06:38:48.583Z,84.40
2018-02-19T06:41:14.673Z,85.10
2018-02-19T06:43:40.707Z,85.30
2018-02-19T06:46:06.763Z,85.00
2018-02-19T06:48:32.809Z,84.50
2018-02-19T06:50:58.830Z,83.80
2018-02-19T06:53:24.898Z,83.60
2018-02-19T06:55:50.960Z,83.40
2018-02-19T06:58:16.992Z,83.40
2018-02-19T07:00:43.764Z,82.60
2018-02-19T07:03:09.947Z,82.50
2018-02-19T07:05:35.974Z,82.20
2018-02-19T07:08:02.055Z,81.30
2018-02-19T07:10:28.091Z,80.60
2018-02-19T07:12:54.178Z,79.90
2018-02-19T07:15:20.235Z,79.00
2018-02-19T07:17:46.288Z,78.40
2018-02-19T07:20:12.389Z,76.60
2018-02-19T07:22:38.543Z,75.30
2018-02-19T07:25:04.601Z,74.10
2018-02-19T07:27:30.693Z,73.60
2018-02-19T07:29:56.815Z,71.80
2018-02-19T07:32:22.937Z,71.70
2018-02-19T07:34:49.039Z,71.70
2018-02-19T07:37:15.145Z,71.20
2018-02-19T07:39:41.215Z,71.00
2018-02-19T07:42:08.027Z,70.50
2018-02-19T07:44:34.076Z,70.50
2018-02-19T07:47:00.926Z,71.30
2018-02-19T07:49:27.054Z,70.70
2018-02-19T07:51:53.199Z,70.90
2018-02-19T07:54:19.310Z,71.40
2018-02-19T07:56:45.438Z,71.10
2018-02-19T07:59:11.545Z,71.10
2018-02-19T08:01:37.580Z,69.90
2018-02-19T08:04:04.324Z,69.40
2018-02-19T08:06:30.347Z,69.30
2018-02-19T08:08:56.456Z,67.80
2018-02-19T08:11:22.483Z,65.70
2018-02-19T08:13:48.502Z,62.90
2018-02-19T08:16:14.546Z,61.00
2018-02-19T08:18:41.342Z,58.50
2018-02-19T08:21:07.391Z,58.40
2018-02-19T08:23:33.514Z,57.60
2018-02-19T08:25:59.567Z,57.70
2018-02-19T08:28:25.634Z,56.90
2018-02-19T08:30:51.724Z,56.50
2018-02-19T08:33:17.819Z,56.50
2018-02-19T08:35:43.867Z,57.00
2018-02-19T08:38:09.927Z,56.70
2018-02-19T08:40:35.977Z,56.10
2018-02-19T08:43:02.047Z,56.10
2018-02-19T08:45:28.060Z,56.70
2018-02-19T08:47:54.127Z,56.40
2018-02-19T08:50:20.177Z,55.90
2018-02-19T08:52:46.167Z,54.90
2018-02-19T08:55:12.194Z,52.60
2018-02-19T08:57:38.250Z,50.60
2018-02-19T09:00:04.295Z,48.70
2018-02-19T09:02:31.046Z,47.50
2018-02-19T09:04:57.076Z,47.40
2018-02-19T09:07:23.073Z,47.60
2018-02-19T09:09:49.859Z,45.30
2018-02-19T09:12:15.888Z,45.20
2018-02-19T09:14:41.874Z,44.40
2018-02-19T09:17:08.687Z,43.60
2018-02-19T09:19:35.501Z,41.60
2018-02-19T09:22:01.558Z,41.50
2018-02-19T09:24:28.373Z,41.50
2018-02-19T09:26:54.450Z,41.40
2018-02-19T09:29:20.501Z,40.80
2018-02-19T09:31:46.527Z,40.70
2018-02-19T09:34:12.552Z,40.00
2018-02-19T09:36:38.613Z,40.30
2018-02-19T09:39:04.636Z,40.10
2018-02-19T09:41:30.654Z,40.10
2018-02-19T09:43:56.781Z,39.60
2018-02-19T09:46:22.811Z,38.80
2018-02-19T09:48:49.614Z,35.40
2018-02-19T09:51:16.407Z,33.10
2018-02-19T09:53:43.168Z,32.00
2018-02-19T09:56:09.221Z,31.90
2018-02-19T09:58:35.285Z,30.60
2018-02-19T10:01:02.095Z,32.60
2018-02-19T10:03:28.146Z,32.50
2018-02-19T10:05:54.948Z,37.60
2018-02-19T10:08:20.997Z,37.50
2018-02-19T10:10:47.050Z,37.20
2018-02-19T10:13:13.049Z,35.90
2018-02-19T10:15:39.095Z,36.50
2018-02-19T10:18:05.927Z,33.40
2018-02-19T10:20:32.705Z,33.60
2018-02-19T10:22:58.774Z,33.50
2018-02-19T10:25:24.817Z,33.70
2018-02-19T10:27:51.571Z,34.40
2018-02-19T10:30:17.582Z,34.40
2018-02-19T10:32:44.326Z,31.90
2018-02-19T10:35:11.149Z,32.30
2018-02-19T10:37:37.185Z,32.30
2018-02-19T10:40:03.240Z,32.00
2018-02-19T10:42:29.313Z,31.60
2018-02-19T10:44:55.364Z,30.40
2018-02-19T10:47:22.101Z,29.40
2018-02-19T10:49:48.114Z,29.40
2018-02-19T10:52:14.220Z,28.90
2018-02-19T10:54:40.202Z,29.00
2018-02-19T10:57:06.273Z,28.50
2018-02-19T10:59:32.310Z,28.10
2018-02-19T11:02:00.154Z,28.10
2018-02-19T11:04:26.196Z,28.10
2018-02-19T11:06:52.185Z,28.10
2018-02-19T11:09:18.247Z,28.40
2018-02-19T11:11:45.016Z,28.20
2018-02-19T11:14:11.012Z,28.20
2018-02-19T11:16:37.822Z,30.90
2018-02-19T11:19:03.846Z,30.80
2018-02-19T11:21:29.894Z,32.10
2018-02-19T11:23:56.712Z,34.30
2018-02-19T11:26:22.763Z,34.20
2018-02-19T11:28:49.555Z,34.10
2018-02-19T11:31:16.282Z,34.90
2018-02-19T11:33:42.264Z,34.80
2018-02-19T11:36:08.317Z,34.80
2018-02-19T11:38:34.464Z,33.70
2018-02-19T11:41:01.329Z,34.60
2018-02-19T11:43:27.369Z,34.50
2018-02-19T11:45:53.427Z,35.20
2018-02-19T11:48:19.510Z,35.20
2018-02-19T11:50:45.554Z,36.20
2018-02-19T11:53:12.339Z,37.80
2018-02-19T11:55:38.388Z,37.70
2018-02-19T11:58:04.446Z,37.80
2018-02-19T12:00:31.221Z,39.30
2018-02-19T12:02:57.277Z,39.20
2018-02-19T12:05:23.302Z,39.80
2018-02-19T12:07:49.367Z,38.40
2018-02-19T12:10:15.431Z,38.70
2018-02-19T12:12:41.488Z,40.60
2018-02-19T12:15:08.258Z,38.50
2018-02-19T12:17:42.027Z,38.50
2018-02-19T12:20:08.790Z,37.20
2018-02-19T12:22:34.823Z,36.50
2018-02-19T12:25:00.863Z,37.40
2018-02-19T12:27:26.898Z,37.90
2018-02-19T12:29:52.990Z,38.80
2018-02-19T12:32:19.017Z,38.60
2018-02-19T12:34:45.064Z,39.30
2018-02-19T12:37:11.094Z,39.60
2018-02-19T12:39:37.146Z,40.30
2018-02-19T12:42:03.186Z,39.50
2018-02-19T12:44:30.041Z,41.10
2018-02-19T12:46:56.090Z,41.10
2018-02-19T12:49:22.118Z,41.90
2018-02-19T12:51:48.298Z,43.10
2018-02-19T12:54:15.071Z,43.60
2018-02-19T12:56:41.100Z,43.60
2018-02-19T12:59:07.195Z,44.60
2018-02-19T13:01:33.204Z,45.10
2018-02-19T13:04:00.011Z,46.00
2018-02-19T13:06:26.045Z,45.30
2018-02-19T13:08:52.080Z,45.50
2018-02-19T13:11:18.144Z,46.00
2018-02-19T13:13:44.241Z,45.70
2018-02-19T13:16:10.312Z,46.20
2018-02-19T13:18:36.478Z,46.60
2018-02-19T13:21:02.531Z,47.10
2018-02-19T13:23:29.342Z,47.80
2018-02-19T13:25:55.382Z,47.70
2018-02-19T13:28:22.179Z,46.90
2018-02-19T13:30:48.189Z,46.80
2018-02-19T13:33:14.304Z,47.50
2018-02-19T13:35:40.352Z,47.60
2018-02-19T13:38:06.430Z,48.10
2018-02-19T13:40:33.208Z,48.90
2018-02-19T13:42:59.240Z,48.20
2018-02-19T13:45:25.257Z,48.00
2018-02-19T13:47:51.342Z,48.50
2018-02-19T13:50:17.392Z,50.00
2018-02-19T13:52:43.495Z,50.40
2018-02-19T13:55:09.619Z,51.30
2018-02-19T13:57:36.377Z,49.00
2018-02-19T14:00:02.416Z,48.90
2018-02-19T14:02:29.344Z,48.60
2018-02-19T14:04:55.404Z,48.70
2018-02-19T14:07:22.160Z,48.00
2018-02-19T14:09:48.187Z,48.00
2018-02-19T14:12:14.180Z,47.60
2018-02-19T14:14:40.183Z,48.10
2018-02-19T14:17:06.232Z,48.70
2018-02-19T14:19:32.209Z,48.70
2018-02-19T14:21:59.250Z,48.60
2018-02-19T14:24:25.302Z,48.50
2018-02-19T14:26:52.217Z,49.20
2018-02-19T14:29:19.035Z,49.30
2018-02-19T14:31:45.125Z,49.20
2018-02-19T14:34:12.007Z,51.00
2018-02-19T14:36:38.161Z,50.80
2018-02-19T14:39:04.205Z,51.00
2018-02-19T14:41:30.505Z,51.20
2018-02-19T14:43:56.971Z,51.40
2018-02-19T14:46:23.057Z,51.70
2018-02-19T14:48:49.910Z,52.30
2018-02-19T14:51:16.017Z,52.20
2018-02-19T14:53:42.245Z,52.70
2018-02-19T14:56:08.355Z,53.40
2018-02-19T14:58:34.384Z,52.70
2018-02-19T15:01:00.510Z,53.00
2018-02-19T15:03:26.768Z,52.90
2018-02-19T15:05:59.314Z,53.10
2018-02-19T15:08:25.443Z,53.50
2018-02-19T15:10:51.598Z,54.20
2018-02-19T15:13:17.744Z,54.40
2018-02-19T15:15:43.774Z,54.50
2018-02-19T15:18:09.760Z,54.80
2018-02-19T15:20:36.566Z,53.70
2018-02-19T15:23:02.695Z,53.70
2018-02-19T15:25:29.508Z,54.40
2018-02-19T15:27:55.577Z,54.30
2018-02-19T15:30:22.377Z,55.30
2018-02-19T15:32:48.441Z,55.30
2018-02-19T15:35:15.263Z,56.40
2018-02-19T15:37:41.360Z,56.30
2018-02-19T15:40:07.417Z,57.00
2018-02-19T15:42:33.612Z,58.90
2018-02-19T15:44:59.741Z,59.30
2018-02-19T15:47:25.795Z,58.90
2018-02-19T15:49:51.886Z,59.00
2018-02-19T15:52:17.914Z,58.70
2018-02-19T15:54:44.034Z,58.50
2018-02-19T15:57:10.158Z,59.10
2018-02-19T15:59:36.290Z,59.90
2018-02-19T16:02:02.566Z,61.50
2018-02-19T16:04:29.408Z,62.70
2018-02-19T16:06:55.584Z,62.50
2018-02-19T16:09:21.700Z,62.60
2018-02-19T16:11:47.782Z,63.30
2018-02-19T16:14:14.714Z,63.60
2018-02-19T16:16:40.730Z,63.50
2018-02-19T16:19:06.942Z,64.20
2018-02-19T16:21:33.666Z,64.30
2018-02-19T16:23:59.740Z,64.20
2018-02-19T16:26:25.849Z,64.90
2018-02-19T16:28:52.753Z,65.20
2018-02-19T16:31:18.854Z,65.10
2018-02-19T16:33:44.916Z,65.40
2018-02-19T16:36:12.772Z,65.30
2018-02-19T16:38:38.895Z,65.30
2018-02-19T16:41:05.702Z,65.50
2018-02-19T16:43:31.759Z,65.50
2018-02-19T16:45:57.887Z,65.50
2018-02-19T16:48:24.007Z,65.70
2018-02-19T16:50:50.029Z,66.20
2018-02-19T16:53:16.112Z,66.90
2018-02-19T16:55:43.232Z,67.30
2018-02-19T16:58:09.443Z,68.00
2018-02-19T17:00:35.497Z,68.20
2018-02-19T17:03:02.290Z,68.80
2018-02-19T17:05:29.199Z,69.40
2018-02-19T17:07:55.320Z,69.40
2018-02-19T17:10:22.327Z,70.20
2018-02-19T17:12:48.584Z,70.10
2018-02-19T17:15:14.889Z,70.40
2018-02-19T17:17:41.019Z,70.90
2018-02-19T17:20:09.845Z,71.00
2018-02-19T17:22:36.154Z,71.50
2018-02-19T17:25:02.598Z,71.70
2018-02-19T17:27:29.730Z,72.20
2018-02-19T17:29:55.802Z,72.20
2018-02-19T17:32:23.119Z,73.00
2018-02-19T17:34:52.011Z,72.90
2018-02-19T17:37:20.106Z,73.40
2018-02-19T17:39:47.029Z,73.60
2018-02-19T17:42:13.854Z,73.60
2018-02-19T17:44:39.901Z,73.50
2018-02-19T17:47:05.999Z,73.70
2018-02-19T17:49:32.085Z,74.00
2018-02-19T17:51:58.131Z,74.00
2018-02-19T17:54:24.275Z,74.40
2018-02-19T17:56:50.461Z,74.30
2018-02-19T17:59:16.542Z,73.80
2018-02-19T18:01:42.681Z,73.80
2018-02-19T18:04:09.524Z,73.60
2018-02-19T18:06:35.701Z,73.50
2018-02-19T18:09:02.449Z,73.00
2018-02-19T18:11:28.568Z,72.60
2018-02-19T18:13:54.626Z,72.90
2018-02-19T18:16:21.756Z,73.00
2018-02-19T18:18:47.862Z,73.00
2018-02-19T18:21:13.928Z,72.80
2018-02-19T18:23:40.964Z,72.30
2018-02-19T18:26:07.195Z,72.20
2018-02-19T18:28:34.336Z,72.60
2018-02-19T18:31:01.600Z,72.50
2018-02-19T18:33:27.706Z,72.10
2018-02-19T18:35:53.869Z,75.10
2018-02-19T18:38:20.788Z,72.30
2018-02-19T18:40:47.593Z,72.10
2018-02-19T18:43:13.643Z,72.00
2018-02-19T18:45:39.820Z,72.30
2018-02-19T18:48:05.899Z,72.60
2018-02-19T18:50:31.994Z,72.40
2018-02-19T18:52:58.157Z,72.60
2018-02-19T18:55:25.016Z,72.30
2018-02-19T18:57:51.040Z,72.30
2018-02-19T19:00:17.873Z,71.80
2018-02-19T19:02:44.712Z,72.00
2018-02-19T19:05:11.544Z,72.30
2018-02-19T19:07:44.397Z,72.50
2018-02-19T19:10:16.583Z,72.50
2018-02-19T19:12:42.666Z,73.00
2018-02-19T19:15:08.748Z,73.50
2018-02-19T19:17:35.627Z,74.40
2018-02-19T19:20:01.765Z,74.40
2018-02-19T19:22:27.876Z,74.80
2018-02-19T19:24:54.058Z,74.90
2018-02-19T19:27:20.116Z,74.90
2018-02-19T19:29:46.155Z,74.90
2018-02-19T19:32:12.241Z,74.80
2018-02-19T19:34:38.295Z,75.50
2018-02-19T19:37:04.545Z,75.70
2018-02-19T19:39:31.340Z,76.20
2018-02-19T19:41:58.204Z,76.70
2018-02-19T19:44:25.055Z,76.00
2018-02-19T19:46:51.186Z,76.60
2018-02-19T19:49:17.248Z,76.50
2018-02-19T19:51:43.295Z,76.80
2018-02-19T19:54:10.038Z,76.40
2018-02-19T19:56:36.153Z,76.30
2018-02-19T19:59:02.219Z,76.90
2018-02-19T20:01:29.026Z,79.50
2018-02-19T20:03:55.955Z,80.10
2018-02-19T20:06:22.023Z,80.10
2018-02-19T20:08:48.065Z,80.40
2018-02-19T20:11:14.151Z,80.80
2018-02-19T20:13:40.187Z,81.00
2018-02-19T20:16:06.367Z,80.90
2018-02-19T20:18:32.416Z,80.50
2018-02-19T20:20:58.468Z,79.70
2018-02-19T20:23:25.336Z,79.30
2018-02-19T20:25:51.455Z,79.30
2018-02-19T20:28:18.268Z,79.30
2018-02-19T20:30:44.314Z,79.20
2018-02-19T20:33:10.412Z,79.20
2018-02-19T20:35:37.298Z,79.60
2018-02-19T20:38:03.339Z,79.50
2018-02-19T20:40:29.509Z,79.40
2018-02-19T20:42:55.603Z,79.50
2018-02-19T20:45:22.487Z,80.80
2018-02-19T20:47:48.638Z,80.70
2018-02-19T20:50:14.686Z,81.50
2018-02-19T20:52:41.548Z,81.70
2018-02-19T20:55:07.663Z,81.60
2018-02-19T20:57:33.720Z,82.20
2018-02-19T20:59:59.779Z,82.00
2018-02-19T21:02:25.850Z,82.20
2018-02-19T21:04:52.627Z,83.20
2018-02-19T21:07:20.225Z,83.10
2018-02-19T21:09:46.296Z,83.20
2018-02-19T21:12:12.335Z,83.60
2018-02-19T21:14:38.390Z,83.60
2018-02-19T21:17:04.454Z,83.80
2018-02-19T21:19:31.816Z,84.80
2018-02-19T21:21:58.036Z,83.50
2018-02-19T21:24:24.112Z,82.80
2018-02-19T21:26:50.414Z,83.50
2018-02-19T21:29:18.374Z,84.10
2018-02-19T21:31:44.643Z,83.90
2018-02-19T21:34:13.087Z,85.00
2018-02-19T21:36:39.191Z,84.80
2018-02-19T21:39:07.096Z,85.20
2018-02-19T21:41:33.216Z,85.10
2018-02-19T21:43:59.652Z,85.30
2018-02-19T21:46:25.773Z,85.40
2018-02-19T21:48:52.579Z,83.60
2018-02-19T21:51:18.648Z,83.50
2018-02-19T21:53:45.456Z,83.50
2018-02-19T21:56:12.985Z,83.90
2018-02-19T21:58:39.306Z,83.10
2018-02-19T22:01:06.164Z,84.20
2018-02-19T22:03:32.369Z,84.10
2018-02-19T22:05:58.408Z,84.80
2018-02-19T22:08:25.380Z,85.40
2018-02-19T22:10:51.491Z,85.30
2018-02-19T22:13:17.551Z,85.80
2018-02-19T22:15:44.381Z,86.60
2018-02-19T22:18:10.500Z,86.60
2018-02-19T22:20:36.715Z,87.20
2018-02-19T22:23:03.370Z,87.50
2018-02-19T22:25:30.245Z,88.20
2018-02-19T22:27:56.377Z,87.60
2018-02-19T22:30:22.461Z,88.00
2018-02-19T22:32:48.736Z,88.10
2018-02-19T22:35:15.552Z,89.60
2018-02-19T22:37:41.622Z,88.70
2018-02-19T22:40:07.722Z,88.70
2018-02-19T22:42:33.783Z,89.00
2018-02-19T22:44:59.841Z,88.50
2018-02-19T22:47:26.087Z,88.50
2018-02-19T22:49:52.268Z,88.80
2018-02-19T22:52:18.357Z,88.70
2018-02-19T22:54:44.473Z,88.50
2018-02-19T22:57:10.641Z,88.80
2018-02-19T22:59:36.708Z,88.60
2018-02-19T23:02:02.798Z,88.40
2018-02-19T23:04:28.876Z,87.90
2018-02-19T23:06:54.925Z,87.10
2018-02-19T23:09:20.979Z,87.50
2018-02-19T23:11:47.800Z,87.90
2018-02-19T23:14:13.842Z,87.80
2018-02-19T23:16:39.915Z,88.10
2018-02-19T23:19:05.955Z,89.10
2018-02-19T23:21:32.025Z,87.60
2018-02-19T23:23:58.815Z,87.40
2018-02-19T23:26:24.848Z,87.30
2018-02-19T23:28:50.920Z,87.30
2018-02-19T23:31:17.100Z,87.40
2018-02-19T23:33:43.176Z,87.20
2018-02-19T23:36:09.947Z,87.60
2018-02-19T23:38:36.074Z,87.40
2018-02-19T23:41:02.117Z,87.80
2018-02-19T23:43:28.169Z,87.80
2018-02-19T23:45:55.087Z,88.60
2018-02-19T23:48:21.835Z,88.60
2018-02-19T23:50:47.842Z,88.50
2018-02-19T23:53:13.896Z,88.10
2018-02-19T23:55:40.725Z,87.90
2018-02-19T23:58:06.732Z,87.80
